Alta Hill, California
Current Conditions -  °F | °C
As of 1:00 PM on Thursday 27 Nov 2014 (Local Time) from KGOO Reporting Station
Few Clouds Few Clouds  
Wind Chill: 64°   Ceiling: Unl
Heat Index: 64°   Visibility: 10mi
Dew Point: 34°   Wind: 5mph
Humidity: 32%   Direction: 150°SSE
Pressure: 30.19"   Gusts: NA
Location:  39.2183°N, 120.924°W
Report Text: KGOO 272100Z AUTO 15004KT 10SM FEW110 18/01 A3019 RMK AO1
Loading
Personal Weather Stations






























Interactive Weather Map New forecast layout! Learn more

10-Day Weather Forecast

Advertisements
Track Severe Weather on mobile